Time;durP1;ratioP1;P1;durP2;ratioP2;P2;SDS_P1;SDS_P2;PMS_P1;PMS_P2;Temp;Humidity;BMP_temperature;BMP_pressure;BME280_temperature;BME280_humidity;BME280_pressure;Samples;Min_cycle;Max_cycle;Signal;HPM_P1;HPM_P2
2023/08/24 00:01:12;;;;;;;1.30;0.60;;;14.30;99.90;;;;;;4970209;28;20062;-76
2023/08/24 00:03:40;;;;;;;0.77;0.63;;;14.30;99.90;;;;;;4960938;28;20054;-76
2023/08/24 00:06:06;;;;;;;1.05;0.55;;;14.30;99.90;;;;;;4964372;28;20117;-76
2023/08/24 00:08:32;;;;;;;;;;;14.20;99.90;;;;;;4942923;28;20125;-76
2023/08/24 00:10:58;;;;;;;0.90;0.70;;;14.20;99.90;;;;;;4970327;28;19933;-76
2023/08/24 00:13:25;;;;;;;0.70;0.60;;;14.10;99.90;;;;;;4940466;28;20125;-75
2023/08/24 00:15:50;;;;;;;0.73;0.50;;;14.10;99.90;;;;;;4978022;28;20046;-75
2023/08/24 00:18:18;;;;;;;1.17;0.70;;;14.10;99.90;;;;;;4965567;28;20416;-75
2023/08/24 00:20:44;;;;;;;0.63;0.55;;;14.00;99.90;;;;;;4959077;28;20455;-76
2023/08/24 00:23:09;;;;;;;0.93;0.60;;;14.10;99.90;;;;;;4968560;28;20047;-75
2023/08/24 00:25:36;;;;;;;0.60;0.50;;;14.10;99.90;;;;;;4969466;28;20487;-75
2023/08/24 00:28:02;;;;;;;0.70;0.60;;;14.10;99.90;;;;;;4970050;28;20051;-75
2023/08/24 00:30:28;;;;;;;0.73;0.60;;;14.10;99.90;;;;;;4972360;28;20078;-76
2023/08/24 00:32:53;;;;;;;0.77;0.50;;;14.10;99.90;;;;;;4957407;28;20093;-76
2023/08/24 00:35:19;;;;;;;0.60;0.50;;;14.10;99.90;;;;;;4973616;28;20121;-76
2023/08/24 00:37:45;;;;;;;1.35;0.68;;;14.20;99.90;;;;;;4973360;28;20439;-76
2023/08/24 00:40:11;;;;;;;1.38;0.68;;;14.20;99.90;;;;;;4955107;28;20085;-76
2023/08/24 00:42:41;;;;;;;0.70;0.70;;;14.20;99.90;;;;;;4962214;28;20054;-76
2023/08/24 00:45:10;;;;;;;0.50;0.50;;;14.20;99.90;;;;;;4974391;28;20054;-76
2023/08/24 00:47:40;;;;;;;0.80;0.60;;;14.30;99.90;;;;;;4971316;28;20039;-76
2023/08/24 00:50:08;;;;;;;0.95;0.70;;;14.40;99.90;;;;;;4964730;28;20051;-76
2023/08/24 00:52:35;;;;;;;0.68;0.60;;;14.40;99.90;;;;;;4964751;28;20405;-75
2023/08/24 00:55:02;;;;;;;1.00;0.73;;;14.30;99.90;;;;;;4963073;28;20118;-75
2023/08/24 00:57:27;;;;;;;;;;;14.30;99.90;;;;;;4969831;28;20047;-75
2023/08/24 00:59:55;;;;;;;1.02;0.80;;;14.30;99.90;;;;;;4956981;28;19922;-76
2023/08/24 01:02:20;;;;;;;1.27;0.65;;;14.30;99.90;;;;;;4972865;28;20069;-75
2023/08/24 01:04:47;;;;;;;0.93;0.63;;;14.30;99.90;;;;;;4938532;28;20035;-76
2023/08/24 01:07:13;;;;;;;1.05;0.60;;;14.30;99.90;;;;;;4988981;28;20046;-76
2023/08/24 01:09:40;;;;;;;1.05;0.80;;;14.30;99.90;;;;;;4956814;28;20038;-76
2023/08/24 01:12:24;;;;;;;;;;;14.30;99.90;;;;;;4973593;28;20054;-76
2023/08/24 01:14:55;;;;;;;0.60;0.60;;;14.30;99.90;;;;;;4972659;28;20043;-76
2023/08/24 01:17:28;;;;;;;0.95;0.80;;;14.30;99.90;;;;;;4956572;28;20046;-75
2023/08/24 01:19:55;;;;;;;0.73;0.60;;;14.40;99.90;;;;;;4972796;28;20043;-75
2023/08/24 01:22:26;;;;;;;1.00;0.90;;;14.30;99.90;;;;;;4948682;28;20043;-75
2023/08/24 01:25:28;;;;;;;1.27;0.82;;;14.40;99.90;;;;;;4988939;28;20042;-75
2023/08/24 01:27:55;;;;;;;0.80;0.70;;;14.40;99.90;;;;;;4962247;28;20109;-75
2023/08/24 01:30:21;;;;;;;0.75;0.60;;;14.40;99.90;;;;;;4972576;28;20035;-75
2023/08/24 01:32:46;;;;;;;0.50;0.50;;;14.40;99.90;;;;;;4940462;28;20077;-75
2023/08/24 01:35:12;;;;;;;2.08;0.90;;;14.40;99.90;;;;;;4956181;28;20100;-75
2023/08/24 01:37:38;;;;;;;0.73;0.70;;;14.40;99.90;;;;;;4969111;28;20047;-75
2023/08/24 01:40:21;;;;;;;1.75;0.90;;;14.40;99.90;;;;;;4967503;28;20051;-76
2023/08/24 01:42:47;;;;;;;1.10;0.70;;;14.40;99.90;;;;;;4945153;29;20066;-76
2023/08/24 01:45:14;;;;;;;0.98;0.60;;;14.40;99.90;;;;;;4969316;28;20047;-76
2023/08/24 01:47:42;;;;;;;1.20;0.80;;;14.30;99.90;;;;;;4972004;28;20046;-76
2023/08/24 01:50:08;;;;;;;0.65;0.50;;;14.30;99.90;;;;;;4956211;28;20225;-76
2023/08/24 01:52:34;;;;;;;;;;;14.40;99.90;;;;;;4949376;29;20135;-76
2023/08/24 01:55:00;;;;;;;0.52;0.50;;;14.40;99.90;;;;;;4965472;28;20001;-76
2023/08/24 01:57:25;;;;;;;0.75;0.60;;;14.40;99.90;;;;;;4968689;28;20054;-76
2023/08/24 01:59:51;;;;;;;0.82;0.60;;;14.40;99.90;;;;;;4962456;28;20047;-76
2023/08/24 02:02:17;;;;;;;0.95;0.40;;;14.50;99.90;;;;;;4971784;28;20066;-75
2023/08/24 02:04:43;;;;;;;1.27;0.95;;;14.40;99.90;;;;;;4955746;28;20039;-75
2023/08/24 02:07:08;;;;;;;0.60;0.50;;;14.50;99.90;;;;;;4971855;28;20053;-75
2023/08/24 02:09:34;;;;;;;0.65;0.50;;;14.50;99.90;;;;;;4965896;28;20055;-76
2023/08/24 02:12:00;;;;;;;1.00;0.50;;;14.60;99.90;;;;;;4948575;28;20082;-76
2023/08/24 02:14:25;;;;;;;0.70;0.55;;;14.60;99.90;;;;;;4955990;28;20039;-76
2023/08/24 02:16:51;;;;;;;0.65;0.63;;;14.60;99.90;;;;;;4971821;28;20546;-76
2023/08/24 02:19:17;;;;;;;1.27;0.55;;;14.60;99.90;;;;;;4971660;28;20053;-76
2023/08/24 02:21:42;;;;;;;0.68;0.50;;;14.70;99.90;;;;;;4955733;28;20062;-76
2023/08/24 02:24:08;;;;;;;0.40;0.40;;;14.70;99.90;;;;;;4971566;28;20394;-76
2023/08/24 02:26:34;;;;;;;0.60;0.40;;;14.70;99.90;;;;;;4971817;28;20084;-76
2023/08/24 02:28:59;;;;;;;0.55;0.50;;;14.70;99.90;;;;;;4928061;29;20050;-75
2023/08/24 02:31:25;;;;;;;0.50;0.50;;;14.80;99.90;;;;;;4954072;28;20494;-75
2023/08/24 02:33:51;;;;;;;1.20;0.50;;;14.70;99.90;;;;;;4971820;28;20343;-75
2023/08/24 02:36:17;;;;;;;0.45;0.43;;;14.80;99.90;;;;;;4955593;28;20043;-75
2023/08/24 02:38:42;;;;;;;0.52;0.43;;;14.80;99.90;;;;;;4947796;29;20066;-75
2023/08/24 02:41:10;;;;;;;0.50;0.50;;;14.80;99.90;;;;;;4955048;28;20081;-75
2023/08/24 02:43:37;;;;;;;0.45;0.45;;;14.90;99.90;;;;;;4971417;28;20046;-76
2023/08/24 02:46:04;;;;;;;0.93;0.60;;;14.90;99.90;;;;;;4959499;28;20490;-76
2023/08/24 02:48:30;;;;;;;0.88;0.60;;;14.90;99.90;;;;;;4956433;28;20415;-75
2023/08/24 02:51:00;;;;;;;0.68;0.60;;;14.90;99.90;;;;;;4971639;28;20046;-75
2023/08/24 02:53:27;;;;;;;0.98;0.50;;;14.90;99.90;;;;;;4958142;28;20042;-76
2023/08/24 02:55:53;;;;;;;0.52;0.50;;;15.00;99.90;;;;;;4971694;28;20039;-75
2023/08/24 02:58:19;;;;;;;0.80;0.50;;;15.00;99.90;;;;;;4971507;28;20394;-76
2023/08/24 03:00:46;;;;;;;0.50;0.50;;;15.00;99.90;;;;;;4973350;28;20031;-76
2023/08/24 03:03:14;;;;;;;1.20;0.50;;;15.10;99.90;;;;;;4970772;28;20078;-75
2023/08/24 03:05:40;;;;;;;0.75;0.50;;;15.10;99.90;;;;;;4970647;28;20098;-75
2023/08/24 03:08:06;;;;;;;0.75;0.60;;;15.20;99.90;;;;;;4970672;28;20050;-76
2023/08/24 03:10:35;;;;;;;0.50;0.50;;;15.10;99.90;;;;;;4971033;28;20050;-75
2023/08/24 03:13:01;;;;;;;0.70;0.57;;;15.20;99.90;;;;;;4942236;28;20061;-75
2023/08/24 03:15:27;;;;;;;0.50;0.50;;;15.20;99.90;;;;;;4970875;28;20050;-75
2023/08/24 03:17:52;;;;;;;0.50;0.40;;;15.20;99.90;;;;;;4970865;28;20097;-76
2023/08/24 03:20:19;;;;;;;0.60;0.55;;;15.30;99.90;;;;;;4970638;28;20043;-75
2023/08/24 03:22:45;;;;;;;0.60;0.40;;;15.30;99.90;;;;;;4970646;28;20427;-75
2023/08/24 03:25:10;;;;;;;0.45;0.38;;;15.30;99.90;;;;;;4954507;28;20042;-76
2023/08/24 03:27:37;;;;;;;0.70;0.60;;;15.30;99.90;;;;;;4970710;28;20060;-75
2023/08/24 03:30:04;;;;;;;0.93;0.63;;;15.20;99.90;;;;;;4970283;28;20037;-75
2023/08/24 03:32:30;;;;;;;1.02;0.70;;;15.20;99.90;;;;;;4958088;28;20487;-75
2023/08/24 03:34:59;;;;;;;1.20;0.68;;;15.20;99.90;;;;;;4980559;28;20050;-75
2023/08/24 03:37:25;;;;;;;0.82;0.60;;;15.20;99.90;;;;;;4930256;28;20055;-75
2023/08/24 03:39:51;;;;;;;0.80;0.60;;;15.20;99.90;;;;;;4953094;28;20040;-76
2023/08/24 03:42:16;;;;;;;0.50;0.50;;;15.20;99.90;;;;;;4960186;28;20050;-75
2023/08/24 03:44:42;;;;;;;1.80;0.85;;;15.20;99.90;;;;;;4956570;28;20098;-76
2023/08/24 03:47:08;;;;;;;1.08;0.68;;;15.20;99.90;;;;;;4954473;28;20140;-76
2023/08/24 03:49:34;;;;;;;0.82;0.60;;;15.20;99.90;;;;;;4986556;28;20053;-76
2023/08/24 03:52:00;;;;;;;1.35;0.80;;;15.20;99.90;;;;;;4970293;28;20445;-75
2023/08/24 03:54:26;;;;;;;0.65;0.60;;;15.20;99.90;;;;;;4954905;28;20043;-76
2023/08/24 03:56:51;;;;;;;1.90;0.80;;;15.20;99.90;;;;;;4954563;28;20082;-75
2023/08/24 03:59:17;;;;;;;1.13;0.70;;;15.20;99.90;;;;;;4954558;28;20085;-75
2023/08/24 04:01:43;;;;;;;1.02;0.77;;;15.30;99.90;;;;;;4969243;28;20394;-76
2023/08/24 04:04:08;;;;;;;1.25;0.90;;;15.30;99.90;;;;;;4970538;28;20043;-76
2023/08/24 04:06:34;;;;;;;1.25;0.82;;;15.30;99.90;;;;;;4957240;28;20054;-76
2023/08/24 04:09:00;;;;;;;1.30;0.80;;;15.20;99.90;;;;;;4990360;28;20050;-76
2023/08/24 04:11:25;;;;;;;0.77;0.60;;;15.20;99.90;;;;;;4978010;28;20078;-76
2023/08/24 04:13:51;;;;;;;0.80;0.63;;;15.20;99.90;;;;;;4962069;28;20043;-76
2023/08/24 04:16:17;;;;;;;0.80;0.70;;;15.20;99.90;;;;;;5006286;28;20054;-75
2023/08/24 04:18:42;;;;;;;1.00;0.70;;;15.20;99.90;;;;;;4973919;28;20436;-75
2023/08/24 04:21:08;;;;;;;0.82;0.55;;;15.20;99.90;;;;;;4954844;28;20045;-75
2023/08/24 04:23:34;;;;;;;0.98;0.85;;;15.20;99.90;;;;;;4979702;28;20046;-76
2023/08/24 04:25:59;;;;;;;0.77;0.60;;;15.30;99.90;;;;;;5005921;28;20067;-76
2023/08/24 04:28:25;;;;;;;0.93;0.70;;;15.20;99.90;;;;;;4957658;28;20154;-76
2023/08/24 04:30:51;;;;;;;1.45;0.75;;;15.20;99.90;;;;;;4961126;28;20058;-76
2023/08/24 04:33:17;;;;;;;1.27;1.02;;;15.20;99.90;;;;;;4956955;28;20078;-76
2023/08/24 04:35:46;;;;;;;1.33;0.68;;;15.20;99.90;;;;;;4957431;28;20074;-76
2023/08/24 04:38:12;;;;;;;1.08;0.75;;;15.10;99.90;;;;;;4960346;28;20057;-76
2023/08/24 04:41:07;;;;;;;1.08;0.73;;;15.00;99.90;;;;;;4973391;28;20054;-76
2023/08/24 04:43:33;;;;;;;1.00;0.80;;;15.00;99.90;;;;;;4969430;28;20051;-76
2023/08/24 04:45:59;;;;;;;0.63;0.63;;;15.00;99.90;;;;;;4962412;28;20059;-76
2023/08/24 04:48:32;;;;;;;1.10;0.80;;;15.00;99.90;;;;;;4971121;28;20073;-76
2023/08/24 04:50:59;;;;;;;1.40;0.80;;;14.90;99.90;;;;;;4973268;28;20050;-75
2023/08/24 04:53:26;;;;;;;1.40;0.88;;;14.90;99.90;;;;;;4972802;28;20067;-76
2023/08/24 04:55:52;;;;;;;1.15;0.90;;;14.90;99.90;;;;;;4959218;28;20031;-76
2023/08/24 04:58:18;;;;;;;1.55;0.80;;;14.90;99.90;;;;;;4953805;28;20043;-75
2023/08/24 05:00:44;;;;;;;0.65;0.60;;;14.90;99.90;;;;;;4966788;28;20035;-76
2023/08/24 05:03:10;;;;;;;1.00;0.60;;;14.90;99.90;;;;;;4986059;28;20050;-76
2023/08/24 05:05:36;;;;;;;0.80;0.70;;;15.00;99.90;;;;;;4968637;28;20043;-75
2023/08/24 05:08:10;;;;;;;1.05;0.70;;;15.00;99.90;;;;;;4973166;28;20398;-75
2023/08/24 05:10:36;;;;;;;0.60;0.50;;;15.10;99.90;;;;;;4972641;28;20082;-76
2023/08/24 05:13:02;;;;;;;1.48;0.75;;;15.20;99.90;;;;;;4972862;28;20074;-76
2023/08/24 05:15:27;;;;;;;;;;;15.20;99.90;;;;;;4973171;28;20156;-76
2023/08/24 05:17:54;;;;;;;1.02;0.60;;;15.30;99.90;;;;;;4972488;28;20374;-76
2023/08/24 05:20:21;;;;;;;0.40;0.35;;;15.40;99.90;;;;;;4972653;28;20051;-76
2023/08/24 05:22:47;;;;;;;0.40;0.40;;;15.40;99.90;;;;;;4972741;28;20145;-76
2023/08/24 05:25:12;;;;;;;1.23;0.63;;;15.50;99.90;;;;;;4972670;28;20046;-76
2023/08/24 05:27:39;;;;;;;1.42;0.60;;;15.50;99.90;;;;;;4972483;28;20043;-76
2023/08/24 05:30:06;;;;;;;0.88;0.50;;;15.50;99.90;;;;;;4972775;28;20054;-76
2023/08/24 05:32:32;;;;;;;1.55;0.65;;;15.50;99.90;;;;;;4972614;28;20127;-76
2023/08/24 05:34:58;;;;;;;0.75;0.60;;;15.60;99.90;;;;;;4967104;28;20064;-76
2023/08/24 05:37:24;;;;;;;1.00;0.57;;;15.60;99.90;;;;;;4964019;28;20038;-75
2023/08/24 05:39:50;;;;;;;0.77;0.70;;;15.60;99.90;;;;;;4942810;28;20039;-76
2023/08/24 05:42:16;;;;;;;0.93;0.50;;;15.70;99.90;;;;;;4947149;29;20521;-76
2023/08/24 05:44:41;;;;;;;1.35;0.70;;;15.70;99.90;;;;;;4970413;28;20490;-76
2023/08/24 05:47:07;;;;;;;1.35;0.70;;;15.80;99.90;;;;;;4956232;28;20113;-76
2023/08/24 05:49:34;;;;;;;2.10;0.93;;;15.80;99.90;;;;;;4952994;29;20057;-76
2023/08/24 05:51:59;;;;;;;0.85;0.55;;;15.90;99.90;;;;;;4969061;28;20074;-76
2023/08/24 05:54:25;;;;;;;1.10;0.68;;;15.90;99.90;;;;;;4952735;28;20526;-76
2023/08/24 05:56:51;;;;;;;1.85;0.90;;;16.00;99.90;;;;;;4952720;28;20043;-76
2023/08/24 05:59:16;;;;;;;3.63;1.35;;;16.00;99.90;;;;;;4955461;28;20122;-76
2023/08/24 06:01:42;;;;;;;1.70;1.17;;;16.10;99.90;;;;;;4972227;28;20505;-76
2023/08/24 06:04:09;;;;;;;2.50;1.00;;;16.10;99.90;;;;;;4971763;28;20046;-76
2023/08/24 06:06:35;;;;;;;2.47;1.00;;;16.20;99.90;;;;;;4971706;28;20046;-76
2023/08/24 06:09:01;;;;;;;1.63;1.00;;;16.20;99.90;;;;;;4939627;28;20043;-76
2023/08/24 06:11:26;;;;;;;2.88;1.13;;;16.30;99.90;;;;;;4972053;28;20055;-76
2023/08/24 06:13:54;;;;;;;1.58;0.80;;;16.40;99.90;;;;;;4971710;28;20337;-76
2023/08/24 06:16:20;;;;;;;2.50;0.80;;;16.50;99.90;;;;;;4955733;28;20057;-76
2023/08/24 06:18:46;;;;;;;1.48;0.70;;;16.60;99.90;;;;;;4955494;28;20046;-76
2023/08/24 06:21:12;;;;;;;1.58;0.70;;;16.70;99.90;;;;;;4971568;28;20038;-75
2023/08/24 06:23:41;;;;;;;;;;;16.80;99.90;;;;;;4956140;28;20058;-76
2023/08/24 06:26:06;;;;;;;1.00;0.80;;;16.90;99.90;;;;;;4990156;28;19965;-75
2023/08/24 06:28:32;;;;;;;;;;;16.90;99.90;;;;;;4955503;28;20442;-75
2023/08/24 06:30:59;;;;;;;0.82;0.80;;;17.00;99.90;;;;;;4955216;28;20400;-75
2023/08/24 06:33:29;;;;;;;1.23;0.70;;;17.10;99.90;;;;;;4971361;28;20086;-76
2023/08/24 06:35:56;;;;;;;1.73;0.80;;;17.30;99.90;;;;;;4955160;28;20401;-76
2023/08/24 06:38:22;;;;;;;1.95;0.70;;;17.40;99.90;;;;;;4965951;28;20051;-76
2023/08/24 06:40:48;;;;;;;;;;;17.60;99.90;;;;;;4947751;28;20114;-76
2023/08/24 06:43:14;;;;;;;2.92;1.20;;;17.70;99.90;;;;;;4951400;29;20384;-76
2023/08/24 06:45:40;;;;;;;;;;;17.80;99.90;;;;;;4977756;28;20109;-76
2023/08/24 06:48:06;;;;;;;1.48;1.08;;;18.00;99.90;;;;;;4953594;28;20361;-76
2023/08/24 06:50:33;;;;;;;1.73;0.90;;;18.20;99.90;;;;;;4952007;28;20055;-75
2023/08/24 06:52:59;;;;;;;1.25;0.88;;;18.30;99.90;;;;;;4981166;28;20050;-76
2023/08/24 06:55:27;;;;;;;1.35;0.60;;;18.40;99.90;;;;;;4955060;28;20383;-76
2023/08/24 06:57:52;;;;;;;1.13;0.80;;;18.70;99.90;;;;;;4967784;28;20083;-76
2023/08/24 07:00:19;;;;;;;;;;;18.80;99.90;;;;;;4971000;28;20071;-75
2023/08/24 07:02:47;;;;;;;0.88;0.75;;;18.90;99.90;;;;;;4989980;28;19968;-76
2023/08/24 07:05:12;;;;;;;1.10;0.77;;;19.00;99.90;;;;;;4970677;28;20046;-76
2023/08/24 07:07:38;;;;;;;;;;;19.10;99.90;;;;;;4955132;28;20073;-76
2023/08/24 07:10:04;;;;;;;2.00;0.80;;;19.20;99.90;;;;;;4970479;28;19928;-76
2023/08/24 07:12:30;;;;;;;1.30;0.60;;;19.50;99.90;;;;;;4970690;28;20051;-76
2023/08/24 07:14:56;;;;;;;;;;;19.90;99.90;;;;;;4971024;28;20050;-76
2023/08/24 07:17:21;;;;;;;0.80;0.52;;;20.10;99.90;;;;;;4970488;28;20254;-76
2023/08/24 07:19:47;;;;;;;;;;;20.40;27.90;;;;;;4955195;28;20047;-76
2023/08/24 07:22:13;;;;;;;1.40;0.73;;;20.60;1.00;;;;;;4970595;28;20392;-76
2023/08/24 07:24:39;;;;;;;1.30;0.70;;;20.70;99.90;;;;;;4967285;28;20051;-76
2023/08/24 07:27:05;;;;;;;;;;;20.60;8.90;;;;;;4927319;29;20059;-76
2023/08/24 07:29:31;;;;;;;1.80;0.88;;;20.40;1.00;;;;;;4999412;28;19980;-76
2023/08/24 07:31:57;;;;;;;1.42;0.90;;;20.50;1.00;;;;;;4954725;28;20080;-76
2023/08/24 07:34:22;;;;;;;;;;;20.40;1.00;;;;;;4956831;28;20046;-76
2023/08/24 07:36:49;;;;;;;1.73;0.80;;;20.50;99.90;;;;;;4973376;28;20097;-76
2023/08/24 07:39:16;;;;;;;1.45;0.82;;;20.60;99.90;;;;;;4970709;28;20118;-76
2023/08/24 07:41:42;;;;;;;1.52;0.70;;;20.70;99.90;;;;;;4970324;28;20046;-76
2023/08/24 07:44:08;;;;;;;1.58;0.80;;;20.80;99.90;;;;;;4959583;28;20055;-76
2023/08/24 07:46:34;;;;;;;1.90;1.00;;;20.90;1.00;;;;;;4967065;28;20046;-76
2023/08/24 07:48:59;;;;;;;2.35;0.63;;;20.90;99.90;;;;;;4970214;28;20070;-76
2023/08/24 07:51:26;;;;;;;0.57;0.50;;;21.10;1.00;;;;;;4970187;28;20065;-76
2023/08/24 07:53:52;;;;;;;1.52;0.73;;;21.10;99.90;;;;;;4967249;28;20058;-76
2023/08/24 07:56:19;;;;;;;1.05;0.70;;;21.30;99.90;;;;;;4950785;28;20134;-76
2023/08/24 07:58:44;;;;;;;1.42;0.80;;;21.40;99.90;;;;;;4965215;28;20074;-76
2023/08/24 08:01:11;;;;;;;2.35;1.02;;;21.60;99.90;;;;;;4979177;28;20077;-76
2023/08/24 08:03:37;;;;;;;1.70;0.98;;;21.70;1.00;;;;;;4960859;28;20051;-77
2023/08/24 08:06:04;;;;;;;2.83;1.23;;;21.80;99.90;;;;;;4969372;28;20372;-76
2023/08/24 08:08:30;;;;;;;1.30;1.00;;;21.80;99.90;;;;;;4951468;28;20047;-76
2023/08/24 08:11:00;;;;;;;1.88;0.73;;;21.90;99.90;;;;;;4969045;28;20410;-76
2023/08/24 08:13:30;;;;;;;1.52;0.90;;;22.00;1.00;;;;;;4970332;28;20046;-76
2023/08/24 08:16:06;;;;;;;1.70;1.20;;;22.10;99.90;;;;;;4953723;28;20141;-76
2023/08/24 08:18:33;;;;;;;2.55;1.20;;;22.20;99.90;;;;;;4970112;28;20053;-76
2023/08/24 08:20:59;;;;;;;3.17;1.30;;;22.40;99.90;;;;;;4956830;28;20117;-76
2023/08/24 08:23:25;;;;;;;1.85;1.08;;;22.50;99.90;;;;;;4970220;28;20483;-76
2023/08/24 08:25:51;;;;;;;2.25;1.33;;;22.60;99.90;;;;;;4953677;28;20039;-76
2023/08/24 08:28:20;;;;;;;2.25;1.00;;;22.80;99.90;;;;;;4954013;28;20042;-76
2023/08/24 08:30:49;;;;;;;2.20;1.20;;;22.80;99.90;;;;;;4968555;28;20707;-76
2023/08/24 08:33:15;;;;;;;3.10;1.17;;;23.00;99.90;;;;;;4950136;28;20106;-76
2023/08/24 08:35:40;;;;;;;1.30;0.90;;;23.10;53.30;;;;;;4976511;28;20051;-76
2023/08/24 08:38:09;;;;;;;0.95;0.73;;;23.20;8.90;;;;;;4955864;28;20054;-76
2023/08/24 08:40:37;;;;;;;2.83;1.17;;;23.30;99.90;;;;;;4951262;28;20065;-76
2023/08/24 08:43:03;;;;;;;1.60;1.00;;;23.40;1.00;;;;;;4963920;28;20055;-76
2023/08/24 08:45:29;;;;;;;281.02;24.35;;;23.50;1.00;;;;;;4950579;28;20134;-76
2023/08/24 08:47:59;;;;;;;91.60;12.43;;;23.60;99.90;;;;;;4966601;28;20084;-77
2023/08/24 08:50:25;;;;;;;25.73;4.93;;;23.70;99.90;;;;;;4970782;28;20514;-76
2023/08/24 08:52:51;;;;;;;7.10;2.08;;;23.80;99.90;;;;;;4973329;28;20058;-76
2023/08/24 08:55:18;;;;;;;3.85;1.33;;;24.00;1.00;;;;;;4956426;28;20047;-76
2023/08/24 08:57:46;;;;;;;4.10;1.40;;;24.20;1.00;;;;;;4960680;28;20043;-76
2023/08/24 09:00:17;;;;;;;1.33;1.08;;;24.00;99.90;;;;;;4973186;28;20494;-76
2023/08/24 09:02:45;;;;;;;2.05;1.15;;;23.80;99.90;;;;;;4973313;28;20046;-77
2023/08/24 09:05:12;;;;;;;2.13;1.00;;;23.60;99.90;;;;;;4973283;28;20077;-77
2023/08/24 09:07:40;;;;;;;2.53;0.90;;;23.30;99.90;;;;;;4969178;28;20181;-77
2023/08/24 09:10:09;;;;;;;1.83;1.30;;;23.10;99.90;;;;;;4969948;28;20062;-77
2023/08/24 09:12:35;;;;;;;1.80;0.98;;;22.90;1.00;;;;;;4956674;28;20134;-76
2023/08/24 09:15:07;;;;;;;1.65;0.90;;;22.90;99.90;;;;;;4957197;28;20062;-76
2023/08/24 09:17:33;;;;;;;1.95;0.85;;;22.90;99.90;;;;;;4959986;28;20039;-77
2023/08/24 09:20:06;;;;;;;1.13;0.85;;;23.00;99.90;;;;;;4973632;28;20042;-77
2023/08/24 09:22:44;;;;;;;1.88;1.02;;;23.10;99.90;;;;;;4973575;28;20042;-77
2023/08/24 09:25:10;;;;;;;1.02;0.90;;;23.10;99.90;;;;;;4970360;28;20498;-77
2023/08/24 09:27:36;;;;;;;2.85;1.10;;;23.20;99.90;;;;;;4957355;28;20374;-77
2023/08/24 09:30:02;;;;;;;1.65;0.90;;;23.10;99.90;;;;;;4972800;28;20573;-76
2023/08/24 09:32:30;;;;;;;1.40;1.05;;;23.20;99.90;;;;;;4972757;28;20463;-76
2023/08/24 09:35:02;;;;;;;1.73;1.27;;;23.20;99.90;;;;;;4956695;28;20039;-76
2023/08/24 09:37:33;;;;;;;2.20;1.00;;;23.10;99.90;;;;;;4972608;28;20499;-76
2023/08/24 09:40:09;;;;;;;1.88;0.70;;;23.00;99.90;;;;;;4972426;28;20479;-78
2023/08/24 09:42:43;;;;;;;2.25;0.93;;;23.00;99.90;;;;;;4945792;29;20047;-78
2023/08/24 09:45:14;;;;;;;1.15;0.80;;;23.00;99.90;;;;;;4971602;28;20522;-78
2023/08/24 09:47:44;;;;;;;1.27;0.80;;;22.90;99.90;;;;;;4972799;28;20053;-78
2023/08/24 09:50:10;;;;;;;2.15;1.00;;;22.90;99.90;;;;;;4942919;28;20122;-77
2023/08/24 09:52:37;;;;;;;1.83;0.90;;;22.80;99.90;;;;;;4946474;29;20130;-77
2023/08/24 09:55:07;;;;;;;1.23;0.80;;;22.80;1.00;;;;;;4968995;28;20379;-78
2023/08/24 09:57:40;;;;;;;1.55;0.80;;;22.80;1.00;;;;;;4968228;28;20043;-78
2023/08/24 10:00:16;;;;;;;1.83;1.00;;;22.70;99.90;;;;;;4948877;28;20065;-78
2023/08/24 10:02:51;;;;;;;1.13;0.82;;;22.60;1.00;;;;;;4970139;28;20130;-78
2023/08/24 10:05:20;;;;;;;2.08;1.15;;;22.60;1.00;;;;;;4972015;28;20050;-77
2023/08/24 10:07:55;;;;;;;1.55;1.10;;;22.50;1.00;;;;;;4972183;28;20435;-76
2023/08/24 10:10:24;;;;;;;3.22;0.93;;;22.50;93.50;;;;;;4971921;28;20050;-77
2023/08/24 10:12:59;;;;;;;1.65;0.70;;;22.50;1.00;;;;;;4956149;28;20363;-76
2023/08/24 10:15:26;;;;;;;0.90;0.65;;;22.50;99.90;;;;;;4972383;28;20125;-76
2023/08/24 10:17:53;;;;;;;1.35;0.85;;;22.50;99.90;;;;;;4936569;29;20051;-77
2023/08/24 10:20:22;;;;;;;1.85;1.05;;;22.50;99.90;;;;;;4964959;28;20049;-77
2023/08/24 10:22:49;;;;;;;1.27;0.75;;;22.40;99.90;;;;;;4973486;28;20050;-77
2023/08/24 10:25:18;;;;;;;1.75;0.70;;;22.40;99.90;;;;;;4963756;28;20069;-77
2023/08/24 10:27:47;;;;;;;1.85;0.88;;;22.40;99.90;;;;;;4955147;28;20501;-77
2023/08/24 10:30:13;;;;;;;2.17;0.95;;;22.30;99.90;;;;;;4941373;28;20113;-77
2023/08/24 10:32:40;;;;;;;1.42;0.82;;;22.30;99.90;;;;;;4959580;28;20121;-76
2023/08/24 10:35:07;;;;;;;1.15;0.70;;;22.20;99.90;;;;;;4973489;28;20085;-76
2023/08/24 10:37:35;;;;;;;1.48;0.90;;;22.10;1.00;;;;;;4974211;28;20102;-76
2023/08/24 10:40:03;;;;;;;1.63;0.80;;;22.10;1.00;;;;;;4953798;29;20054;-76
2023/08/24 10:42:44;;;;;;;1.88;0.80;;;22.10;15.20;;;;;;4937948;29;20150;-76
2023/08/24 10:45:11;;;;;;;1.52;0.90;;;22.00;94.00;;;;;;4970589;28;20051;-76
2023/08/24 10:47:45;;;;;;;0.90;0.80;;;22.00;99.90;;;;;;4955222;28;20126;-76
2023/08/24 10:50:12;;;;;;;1.60;0.90;;;21.90;99.90;;;;;;4971055;28;20482;-76
2023/08/24 10:52:39;;;;;;;1.75;1.27;;;21.90;99.90;;;;;;4967953;28;20166;-77
2023/08/24 10:55:21;;;;;;;2.80;1.13;;;21.80;99.90;;;;;;4968193;28;20096;-77
2023/08/24 10:58:04;;;;;;;1.65;0.98;;;21.80;1.00;;;;;;4971036;28;20050;-76
2023/08/24 11:00:30;;;;;;;1.42;0.85;;;21.80;1.00;;;;;;4970817;28;20049;-76
2023/08/24 11:02:57;;;;;;;1.05;0.80;;;21.80;68.00;;;;;;4971093;28;20039;-76
2023/08/24 11:05:30;;;;;;;2.47;1.20;;;21.80;99.90;;;;;;4971080;28;20489;-76
2023/08/24 11:08:00;;;;;;;1.35;1.13;;;21.80;99.90;;;;;;4958651;28;20039;-76
2023/08/24 11:10:43;;;;;;;1.13;0.82;;;21.80;99.90;;;;;;4970890;28;20082;-77
2023/08/24 11:13:16;;;;;;;1.08;0.90;;;21.80;1.00;;;;;;4959050;28;20517;-76
2023/08/24 11:15:47;;;;;;;1.02;0.68;;;21.80;1.00;;;;;;4957332;28;20047;-76
2023/08/24 11:18:18;;;;;;;1.23;0.80;;;21.80;13.00;;;;;;4970836;28;20078;-76
2023/08/24 11:20:45;;;;;;;0.88;0.50;;;21.80;11.10;;;;;;4970585;28;20522;-76
2023/08/24 11:23:12;;;;;;;0.98;0.80;;;21.80;25.60;;;;;;4954677;28;20046;-76
2023/08/24 11:25:38;;;;;;;1.02;0.82;;;21.80;45.80;;;;;;4954485;28;20046;-76
2023/08/24 11:28:04;;;;;;;0.95;0.73;;;21.80;91.30;;;;;;4938624;28;20137;-76
2023/08/24 11:30:34;;;;;;;0.73;0.70;;;21.80;98.20;;;;;;4970424;28;20544;-76
2023/08/24 11:33:02;;;;;;;0.93;0.80;;;21.90;99.90;;;;;;4941103;28;20047;-76
2023/08/24 11:35:27;;;;;;;0.90;0.60;;;21.90;99.90;;;;;;4961697;28;20436;-76
2023/08/24 11:37:54;;;;;;;0.77;0.70;;;21.90;99.90;;;;;;4965816;28;20066;-76
2023/08/24 11:40:26;;;;;;;1.73;1.08;;;21.90;99.90;;;;;;4995966;28;20070;-76
2023/08/24 11:42:54;;;;;;;1.02;0.70;;;22.00;99.90;;;;;;4951196;28;20085;-76
2023/08/24 11:45:21;;;;;;;1.88;0.70;;;22.10;99.90;;;;;;4970335;28;20126;-76
2023/08/24 11:47:47;;;;;;;1.17;0.70;;;22.10;99.90;;;;;;4958265;28;20130;-76
2023/08/24 11:50:13;;;;;;;1.10;0.85;;;22.20;99.90;;;;;;4969247;28;20137;-76
2023/08/24 11:52:42;;;;;;;1.13;0.80;;;22.30;99.90;;;;;;4971813;28;20054;-76
2023/08/24 11:55:09;;;;;;;1.35;0.90;;;22.40;99.90;;;;;;4954359;28;20047;-76
2023/08/24 11:57:35;;;;;;;2.05;0.88;;;22.50;99.90;;;;;;4970263;28;20402;-76
2023/08/24 12:00:05;;;;;;;1.15;0.93;;;22.60;99.90;;;;;;4970023;28;20135;-76
2023/08/24 12:02:32;;;;;;;0.90;0.80;;;22.60;99.90;;;;;;5002579;28;20503;-77
2023/08/24 12:04:58;;;;;;;1.38;1.20;;;22.60;99.90;;;;;;4970010;28;20125;-76
2023/08/24 12:07:25;;;;;;;1.02;0.90;;;22.70;78.00;;;;;;4954025;28;20053;-77
2023/08/24 12:09:54;;;;;;;2.22;1.55;;;22.70;1.00;;;;;;4970084;28;20159;-77
2023/08/24 12:12:21;;;;;;;1.40;0.95;;;22.70;1.00;;;;;;4969996;28;20059;-77
2023/08/24 12:14:47;;;;;;;1.42;1.00;;;22.70;75.00;;;;;;4970292;28;20042;-77
2023/08/24 12:17:15;;;;;;;0.90;0.90;;;22.70;96.40;;;;;;4941611;29;20131;-77
2023/08/24 12:19:45;;;;;;;1.02;0.90;;;22.70;1.00;;;;;;4940399;28;20043;-77
2023/08/24 12:22:19;;;;;;;1.00;0.90;;;22.70;1.00;;;;;;4970276;28;20137;-77
2023/08/24 12:24:48;;;;;;;1.48;1.00;;;22.70;1.00;;;;;;4970297;28;20335;-77
2023/08/24 12:27:24;;;;;;;1.08;0.95;;;22.70;2.80;;;;;;4941797;28;20127;-77
2023/08/24 12:29:50;;;;;;;1.45;0.90;;;22.70;10.90;;;;;;4973811;28;20142;-77
2023/08/24 12:32:19;;;;;;;1.80;0.90;;;22.70;47.10;;;;;;4957695;28;20165;-77
2023/08/24 12:34:46;;;;;;;2.03;0.98;;;22.60;86.00;;;;;;4973690;28;20042;-77
2023/08/24 12:37:12;;;;;;;0.85;0.80;;;22.60;69.70;;;;;;4973820;28;20054;-77
2023/08/24 12:39:39;;;;;;;0.85;0.70;;;22.60;98.10;;;;;;4973731;28;20121;-77
2023/08/24 12:42:06;;;;;;;0.93;0.80;;;22.60;99.90;;;;;;4973563;28;20038;-77
2023/08/24 12:44:32;;;;;;;1.17;1.05;;;22.70;99.90;;;;;;4957141;28;20066;-77
2023/08/24 12:46:59;;;;;;;1.10;0.88;;;22.70;9.30;;;;;;5006114;28;20061;-75
2023/08/24 12:49:25;;;;;;;1.23;0.98;;;22.80;68.20;;;;;;4957177;28;20046;-76
2023/08/24 12:51:51;;;;;;;1.80;0.90;;;22.80;59.80;;;;;;4973306;28;20054;-77